createdAt,value
2023-04-26T00:02:21.182Z,11.86
2023-04-26T00:04:56.642Z,11.91
2023-04-26T00:07:30.668Z,11.96
2023-04-26T00:10:03.732Z,11.90
2023-04-26T00:12:37.020Z,11.96
2023-04-26T00:15:10.523Z,11.89
2023-04-26T00:17:44.806Z,11.83
2023-04-26T00:20:18.104Z,11.83
2023-04-26T00:22:51.026Z,11.73
2023-04-26T00:25:23.919Z,11.78
2023-04-26T00:27:56.954Z,11.80
2023-04-26T00:30:30.375Z,11.77
2023-04-26T00:33:05.070Z,11.65
2023-04-26T00:35:38.871Z,11.83
2023-04-26T00:38:11.716Z,11.96
2023-04-26T00:40:44.767Z,11.76
2023-04-26T00:43:17.710Z,11.79
2023-04-26T00:45:51.635Z,11.74
2023-04-26T00:48:26.403Z,11.65
2023-04-26T00:50:59.886Z,11.65
2023-04-26T00:53:34.280Z,11.79
2023-04-26T00:56:08.072Z,11.71
2023-04-26T00:58:41.064Z,11.69
2023-04-26T01:01:14.459Z,11.53
2023-04-26T01:03:49.086Z,11.71
2023-04-26T01:06:23.378Z,11.58
2023-04-26T01:08:58.487Z,11.51
2023-04-26T01:11:31.540Z,11.48
2023-04-26T01:14:05.003Z,11.64
2023-04-26T01:16:38.473Z,11.55
2023-04-26T01:19:13.519Z,11.60
2023-04-26T01:21:46.674Z,11.53
2023-04-26T01:24:21.096Z,11.50
2023-04-26T01:26:53.942Z,11.71
2023-04-26T01:29:27.924Z,11.58
2023-04-26T01:32:01.052Z,11.63
2023-04-26T01:34:34.637Z,11.44
2023-04-26T01:37:07.849Z,11.51
2023-04-26T01:39:42.166Z,11.69
2023-04-26T01:42:15.095Z,11.62
2023-04-26T01:44:47.892Z,11.70
2023-04-26T01:47:20.939Z,11.67
2023-04-26T01:49:54.353Z,11.70
2023-04-26T01:52:27.272Z,11.70
2023-04-26T01:55:01.463Z,11.75
2023-04-26T01:57:34.314Z,11.67
2023-04-26T02:00:09.080Z,11.57
2023-04-26T02:02:41.959Z,11.50
2023-04-26T02:05:15.714Z,11.75
2023-04-26T02:07:48.760Z,11.48
2023-04-26T02:10:23.004Z,11.57
2023-04-26T02:12:55.797Z,11.71
2023-04-26T02:15:28.724Z,11.71
2023-04-26T02:18:01.672Z,11.64
2023-04-26T02:20:35.034Z,11.48
2023-04-26T02:23:08.008Z,11.54
2023-04-26T02:25:42.578Z,11.52
2023-04-26T02:28:16.237Z,11.56
2023-04-26T02:30:49.805Z,11.51
2023-04-26T02:33:22.873Z,11.39
2023-04-26T02:35:56.131Z,11.38
2023-04-26T02:38:29.103Z,11.63
2023-04-26T02:41:03.948Z,11.80
2023-04-26T02:43:36.690Z,11.72
2023-04-26T02:46:09.597Z,12.25
2023-04-26T02:48:42.650Z,12.05
2023-04-26T02:51:16.107Z,11.94
2023-04-26T02:53:49.362Z,12.27
2023-04-26T02:56:23.532Z,12.30
2023-04-26T02:58:56.586Z,11.93
2023-04-26T03:01:29.503Z,12.21
2023-04-26T03:04:02.501Z,12.16
2023-04-26T03:06:35.884Z,11.96
2023-04-26T03:09:08.946Z,11.89
2023-04-26T03:11:43.348Z,12.03
2023-04-26T03:14:16.037Z,12.47
2023-04-26T03:16:49.008Z,11.97
2023-04-26T03:19:21.819Z,12.19
2023-04-26T03:21:55.309Z,11.80
2023-04-26T03:24:28.200Z,11.79
2023-04-26T03:27:02.401Z,11.96
2023-04-26T03:29:35.273Z,11.99
2023-04-26T03:32:08.865Z,12.10
2023-04-26T03:34:42.012Z,11.88
2023-04-26T03:37:15.236Z,12.04
2023-04-26T03:39:48.207Z,11.72
2023-04-26T03:42:22.698Z,11.80
2023-04-26T03:44:55.571Z,12.24
2023-04-26T03:47:28.539Z,12.30
2023-04-26T03:50:01.728Z,11.73
2023-04-26T03:52:34.739Z,11.79
2023-04-26T03:55:10.242Z,11.80
2023-04-26T03:57:44.551Z,11.57
2023-04-26T04:00:17.480Z,11.87
2023-04-26T04:02:50.355Z,11.78
2023-04-26T04:05:23.409Z,11.47
2023-04-26T04:07:57.391Z,11.40
2023-04-26T04:10:30.457Z,11.47
2023-04-26T04:13:04.690Z,11.50
2023-04-26T04:15:37.634Z,11.58
2023-04-26T04:18:10.600Z,11.53
2023-04-26T04:20:43.580Z,11.57
2023-04-26T04:23:17.215Z,11.61
2023-04-26T04:25:51.634Z,11.85
2023-04-26T04:28:25.928Z,12.15
2023-04-26T04:31:01.126Z,12.34
2023-04-26T04:33:34.166Z,11.97
2023-04-26T04:36:08.394Z,11.77
2023-04-26T04:38:41.776Z,11.66
2023-04-26T04:41:15.189Z,11.71
2023-04-26T04:43:49.306Z,11.96
2023-04-26T04:46:22.750Z,11.85
2023-04-26T04:48:55.748Z,11.71
2023-04-26T04:51:28.888Z,12.07
2023-04-26T04:54:10.195Z,12.12
2023-04-26T04:56:43.485Z,11.81
2023-04-26T04:59:18.157Z,12.02
2023-04-26T05:01:51.240Z,12.00
2023-04-26T05:04:24.675Z,12.10
2023-04-26T05:06:57.902Z,12.17
2023-04-26T05:09:30.841Z,12.26
2023-04-26T05:12:04.101Z,12.34
2023-04-26T05:14:38.283Z,12.54
2023-04-26T05:17:12.389Z,12.21
2023-04-26T05:19:45.783Z,12.12
2023-04-26T05:22:21.220Z,12.38
2023-04-26T05:24:54.042Z,12.47
2023-04-26T05:27:27.258Z,12.61
2023-04-26T05:30:03.378Z,12.76
2023-04-26T05:32:36.515Z,12.79
2023-04-26T05:35:10.118Z,12.58
2023-04-26T05:37:43.402Z,12.40
2023-04-26T05:40:16.688Z,12.51
2023-04-26T05:42:49.534Z,12.29
2023-04-26T05:45:23.716Z,12.32
2023-04-26T05:47:56.973Z,12.48
2023-04-26T05:50:30.383Z,12.49
2023-04-26T05:53:03.291Z,12.92
2023-04-26T05:55:36.133Z,13.00
2023-04-26T05:58:09.094Z,12.61
2023-04-26T06:00:43.243Z,12.41
2023-04-26T06:03:16.520Z,12.49
2023-04-26T06:05:49.866Z,12.52
2023-04-26T06:08:22.890Z,12.80
2023-04-26T06:10:55.994Z,12.95
2023-04-26T06:13:29.023Z,12.88
2023-04-26T06:16:03.164Z,13.09
2023-04-26T06:18:36.378Z,13.11
2023-04-26T06:21:09.725Z,13.09
2023-04-26T06:23:42.788Z,13.10
2023-04-26T06:26:15.623Z,12.99
2023-04-26T06:28:48.409Z,12.97
2023-04-26T06:31:23.023Z,13.31
2023-04-26T06:33:56.179Z,13.50
2023-04-26T06:36:29.434Z,13.70
2023-04-26T06:39:03.225Z,13.65
2023-04-26T06:41:36.033Z,13.65
2023-04-26T06:44:08.823Z,13.19
2023-04-26T06:46:43.573Z,13.12
2023-04-26T06:49:16.692Z,13.07
2023-04-26T06:51:49.758Z,13.33
2023-04-26T06:54:22.808Z,13.76
2023-04-26T06:56:55.582Z,13.84
2023-04-26T06:59:28.531Z,13.71
2023-04-26T07:02:03.281Z,13.71
2023-04-26T07:04:36.922Z,13.79
2023-04-26T07:07:11.807Z,13.90
2023-04-26T07:09:46.204Z,13.67
2023-04-26T07:12:19.271Z,13.75
2023-04-26T07:14:52.242Z,13.56
2023-04-26T07:17:26.701Z,13.64
2023-04-26T07:19:59.715Z,13.69
2023-04-26T07:22:33.057Z,13.67
2023-04-26T07:25:06.350Z,13.60
2023-04-26T07:27:39.228Z,13.75
2023-04-26T07:30:12.352Z,13.78
2023-04-26T07:32:46.700Z,13.70
2023-04-26T07:35:19.733Z,13.71
2023-04-26T07:37:52.927Z,13.88
2023-04-26T07:40:26.441Z,13.68
2023-04-26T07:42:59.329Z,13.86
2023-04-26T07:45:33.449Z,14.08
2023-04-26T07:48:07.931Z,14.32
2023-04-26T07:50:40.989Z,14.13
2023-04-26T07:53:14.210Z,14.29
2023-04-26T07:55:47.379Z,14.61
2023-04-26T07:58:21.601Z,14.69
2023-04-26T08:00:55.177Z,14.79
2023-04-26T08:03:30.037Z,14.89
2023-04-26T08:06:04.136Z,14.97
2023-04-26T08:08:42.879Z,15.03
2023-04-26T08:11:15.662Z,15.14
2023-04-26T08:13:48.547Z,15.03
2023-04-26T08:16:21.383Z,15.06
2023-04-26T08:18:55.937Z,15.17
2023-04-26T08:21:29.507Z,15.09
2023-04-26T08:24:02.350Z,14.99
2023-04-26T08:26:35.186Z,15.14
2023-04-26T08:29:08.990Z,14.85
2023-04-26T08:31:42.116Z,15.11
2023-04-26T08:34:16.689Z,15.37
2023-04-26T08:36:49.869Z,15.21
2023-04-26T08:39:22.674Z,15.33
2023-04-26T08:41:56.276Z,15.12
2023-04-26T08:44:29.610Z,14.79
2023-04-26T08:47:05.404Z,14.95
2023-04-26T08:49:42.118Z,14.60
2023-04-26T08:52:22.758Z,14.70
2023-04-26T08:54:56.275Z,14.85
2023-04-26T08:57:29.097Z,15.07
2023-04-26T09:00:05.740Z,15.14
2023-04-26T09:02:39.255Z,15.32
2023-04-26T09:05:14.010Z,15.38
2023-04-26T09:07:47.917Z,15.66
2023-04-26T09:10:22.174Z,15.47
2023-04-26T09:12:55.578Z,15.38
2023-04-26T09:15:28.746Z,15.47
2023-04-26T09:18:16.580Z,15.56
2023-04-26T09:21:02.963Z,15.86
2023-04-26T09:23:36.691Z,15.65
2023-04-26T09:26:22.553Z,15.35
2023-04-26T09:29:10.452Z,15.50
2023-04-26T09:34:17.181Z,16.06
2023-04-26T09:36:52.598Z,15.94
2023-04-26T09:39:33.050Z,15.98
2023-04-26T09:42:06.446Z,15.70
2023-04-26T09:44:39.435Z,15.58
2023-04-26T09:47:12.840Z,15.62
2023-04-26T09:49:48.683Z,15.52
2023-04-26T09:52:23.198Z,15.55
2023-04-26T09:54:56.380Z,15.51
2023-04-26T09:57:31.437Z,15.69
2023-04-26T10:00:10.473Z,15.83
2023-04-26T10:02:44.373Z,15.84
2023-04-26T10:05:17.717Z,15.44
2023-04-26T10:07:52.444Z,15.76
2023-04-26T10:10:25.443Z,15.87
2023-04-26T10:12:58.507Z,15.94
2023-04-26T10:15:31.629Z,15.84
2023-04-26T10:18:05.162Z,15.77
2023-04-26T10:20:41.900Z,16.11
2023-04-26T10:23:20.985Z,15.98
2023-04-26T10:25:53.979Z,15.98
2023-04-26T10:28:42.362Z,16.00
2023-04-26T10:31:15.271Z,16.15
2023-04-26T10:34:09.155Z,16.09
2023-04-26T10:36:58.074Z,15.97
2023-04-26T10:39:32.692Z,16.03
2023-04-26T10:42:25.814Z,16.05
2023-04-26T10:45:00.162Z,16.07
2023-04-26T10:47:34.017Z,16.09
2023-04-26T10:50:08.520Z,16.12
2023-04-26T10:53:04.462Z,15.95
2023-04-26T10:55:41.794Z,15.97
2023-04-26T10:58:30.008Z,16.01
2023-04-26T11:01:07.325Z,15.91
2023-04-26T11:03:41.797Z,15.77
2023-04-26T11:06:18.339Z,15.69
2023-04-26T11:08:52.020Z,15.73
2023-04-26T11:11:29.829Z,15.66
2023-04-26T11:14:03.157Z,15.49
2023-04-26T11:16:36.242Z,15.44
2023-04-26T11:19:10.937Z,14.83
2023-04-26T11:21:43.708Z,14.65
2023-04-26T11:24:16.906Z,14.54
2023-04-26T11:26:53.870Z,14.60
2023-04-26T11:29:27.060Z,14.36
2023-04-26T11:32:00.519Z,14.13
2023-04-26T11:34:33.524Z,13.83
2023-04-26T11:37:07.973Z,13.74
2023-04-26T11:39:41.055Z,13.66
2023-04-26T11:42:15.707Z,13.46
2023-04-26T11:44:51.934Z,13.73
2023-04-26T11:47:26.145Z,13.56
2023-04-26T11:49:59.116Z,13.59
2023-04-26T11:52:32.286Z,13.40
2023-04-26T11:55:06.300Z,13.39
2023-04-26T11:57:40.621Z,13.31
2023-04-26T12:00:14.987Z,13.70
2023-04-26T12:02:48.366Z,13.36
2023-04-26T12:05:25.378Z,13.30
2023-04-26T12:07:58.819Z,13.24
2023-04-26T12:10:33.670Z,13.23
2023-04-26T12:13:07.941Z,13.04
2023-04-26T12:15:40.816Z,12.89
2023-04-26T12:18:13.973Z,12.95
2023-04-26T12:20:47.811Z,13.00
2023-04-26T12:23:21.012Z,12.96
2023-04-26T12:25:55.121Z,12.93
2023-04-26T12:28:29.599Z,12.94
2023-04-26T12:31:04.376Z,12.81
2023-04-26T12:33:37.477Z,12.68
2023-04-26T12:36:12.625Z,13.17
2023-04-26T12:38:45.941Z,13.02
2023-04-26T12:41:18.862Z,12.59
2023-04-26T12:43:53.020Z,12.56
2023-04-26T12:46:26.430Z,12.45
2023-04-26T12:48:59.592Z,12.31
2023-04-26T12:51:33.916Z,12.35
2023-04-26T12:54:06.958Z,12.39
2023-04-26T12:56:43.871Z,12.30
2023-04-26T12:59:18.139Z,12.24
2023-04-26T13:01:51.065Z,12.21
2023-04-26T13:04:24.463Z,12.28
2023-04-26T13:06:57.768Z,12.40
2023-04-26T13:09:30.932Z,12.21
2023-04-26T13:12:04.144Z,12.26
2023-04-26T13:14:39.119Z,12.48
2023-04-26T13:17:12.289Z,12.67
2023-04-26T13:19:45.290Z,12.28
2023-04-26T13:22:20.270Z,12.19
2023-04-26T13:24:53.077Z,12.15
2023-04-26T13:27:27.051Z,12.08
2023-04-26T13:30:02.331Z,12.26
2023-04-26T13:32:36.355Z,12.15
2023-04-26T13:35:10.060Z,12.02
2023-04-26T13:37:43.521Z,12.16
2023-04-26T13:40:17.174Z,12.19
2023-04-26T13:42:50.399Z,12.31
2023-04-26T13:45:24.878Z,12.29
2023-04-26T13:47:57.856Z,12.38
2023-04-26T13:50:31.294Z,13.01
2023-04-26T13:53:04.416Z,12.95
2023-04-26T13:55:37.314Z,12.51
2023-04-26T13:58:10.402Z,12.77
2023-04-26T14:00:44.683Z,12.65
2023-04-26T14:03:17.851Z,12.80
2023-04-26T14:05:51.295Z,12.72
2023-04-26T14:08:24.144Z,13.12
2023-04-26T14:10:57.259Z,13.21
2023-04-26T14:13:30.456Z,13.13
2023-04-26T14:16:04.856Z,13.35
2023-04-26T14:18:40.025Z,12.97
2023-04-26T14:21:13.064Z,12.41
2023-04-26T14:23:45.965Z,13.12
2023-04-26T14:26:18.793Z,13.23
2023-04-26T14:28:52.214Z,13.39
2023-04-26T14:31:28.153Z,13.03
2023-04-26T14:34:02.664Z,12.81
2023-04-26T14:36:36.128Z,12.86
2023-04-26T14:39:09.697Z,12.98
2023-04-26T14:41:43.472Z,12.75
2023-04-26T14:44:16.343Z,12.64
2023-04-26T14:46:50.670Z,12.51
2023-04-26T14:49:23.834Z,12.47
2023-04-26T14:51:57.076Z,12.60
2023-04-26T14:54:30.028Z,12.57
2023-04-26T14:57:03.161Z,12.65
2023-04-26T14:59:36.621Z,12.84
2023-04-26T15:02:11.130Z,12.49
2023-04-26T15:04:44.820Z,12.98
2023-04-26T15:07:31.352Z,12.74
2023-04-26T15:10:06.088Z,12.37
2023-04-26T15:12:39.052Z,12.75
2023-04-26T15:15:12.948Z,12.40
2023-04-26T15:17:47.245Z,12.57
2023-04-26T15:20:20.781Z,12.68
2023-04-26T15:22:53.643Z,12.45
2023-04-26T15:25:26.517Z,12.50
2023-04-26T15:27:59.344Z,12.36
2023-04-26T15:30:32.544Z,12.35
2023-04-26T15:33:07.902Z,12.40
2023-04-26T15:35:41.378Z,12.63
2023-04-26T15:38:14.158Z,12.75
2023-04-26T15:40:47.073Z,12.52
2023-04-26T15:43:20.165Z,12.54
2023-04-26T15:45:53.550Z,12.52
2023-04-26T15:48:28.419Z,12.28
2023-04-26T15:51:01.184Z,12.26
2023-04-26T15:53:34.521Z,12.38
2023-04-26T15:56:14.491Z,12.34
2023-04-26T15:58:48.558Z,12.37
2023-04-26T16:01:21.539Z,12.50
2023-04-26T16:03:56.721Z,12.71
2023-04-26T16:06:29.878Z,13.28
2023-04-26T16:09:17.120Z,12.96
2023-04-26T16:11:57.355Z,13.15
2023-04-26T16:14:31.252Z,13.09
2023-04-26T16:17:05.032Z,13.27
2023-04-26T16:19:39.468Z,13.17
2023-04-26T16:22:12.589Z,13.32
2023-04-26T16:24:45.818Z,13.21
2023-04-26T16:27:20.984Z,12.98
2023-04-26T16:29:57.067Z,13.10
2023-04-26T16:32:30.730Z,12.75
2023-04-26T16:35:05.577Z,12.67
2023-04-26T16:37:39.980Z,12.51
2023-04-26T16:40:13.746Z,12.68
2023-04-26T16:42:46.548Z,12.39
2023-04-26T16:45:19.710Z,12.30
2023-04-26T16:47:52.818Z,12.20
2023-04-26T16:50:27.507Z,12.26
2023-04-26T16:53:00.559Z,12.02
2023-04-26T16:55:33.825Z,11.94
2023-04-26T16:58:06.613Z,11.98
2023-04-26T17:00:40.093Z,11.98
2023-04-26T17:03:13.464Z,12.04
2023-04-26T17:05:48.932Z,12.18
2023-04-26T17:08:22.064Z,12.21
2023-04-26T17:10:57.087Z,11.95
2023-04-26T17:13:32.676Z,12.09
2023-04-26T17:16:06.582Z,11.94
2023-04-26T17:18:39.780Z,12.11
2023-04-26T17:21:14.182Z,12.16
2023-04-26T17:23:47.080Z,12.02
2023-04-26T17:26:20.077Z,12.05
2023-04-26T17:28:52.968Z,12.05
2023-04-26T17:31:25.945Z,12.16
2023-04-26T17:33:59.385Z,12.19
2023-04-26T17:36:33.782Z,11.68
2023-04-26T17:39:07.299Z,12.51
2023-04-26T17:41:40.506Z,12.36
2023-04-26T17:44:13.913Z,12.34
2023-04-26T17:46:47.094Z,12.21
2023-04-26T17:49:22.075Z,12.14
2023-04-26T17:51:56.390Z,11.95
2023-04-26T17:54:29.464Z,11.97
2023-04-26T17:57:02.992Z,12.14
2023-04-26T17:59:36.062Z,12.48
2023-04-26T18:02:09.408Z,12.56
2023-04-26T18:04:43.167Z,12.29
2023-04-26T18:07:17.665Z,12.11
2023-04-26T18:09:50.553Z,11.94
2023-04-26T18:12:23.604Z,12.15
2023-04-26T18:14:57.009Z,12.27
2023-04-26T18:17:30.164Z,12.24
2023-04-26T18:20:03.411Z,12.28
2023-04-26T18:22:37.748Z,12.45
2023-04-26T18:25:11.129Z,12.11
2023-04-26T18:27:44.075Z,12.61
2023-04-26T18:30:18.313Z,12.47
2023-04-26T18:32:52.536Z,12.31
2023-04-26T18:35:25.679Z,12.14
2023-04-26T18:37:59.862Z,12.03
2023-04-26T18:40:32.894Z,12.06
2023-04-26T18:43:05.956Z,12.18
2023-04-26T18:45:38.957Z,12.62
2023-04-26T18:48:12.751Z,12.32
2023-04-26T18:50:51.343Z,12.23
2023-04-26T18:53:25.717Z,12.43
2023-04-26T18:55:58.613Z,12.19
2023-04-26T18:58:31.932Z,12.75
2023-04-26T19:01:05.469Z,12.35
2023-04-26T19:03:38.781Z,12.03
2023-04-26T19:06:15.297Z,12.04
2023-04-26T19:08:49.799Z,12.42
2023-04-26T19:11:22.761Z,12.62
2023-04-26T19:13:55.958Z,12.71
2023-04-26T19:16:29.322Z,12.56
2023-04-26T19:19:02.431Z,12.48
2023-04-26T19:21:36.168Z,11.91
2023-04-26T19:24:10.832Z,11.99
2023-04-26T19:26:43.776Z,11.81
2023-04-26T19:29:17.653Z,11.84
2023-04-26T19:31:51.318Z,11.74
2023-04-26T19:34:24.703Z,11.84
2023-04-26T19:36:57.600Z,11.68
2023-04-26T19:39:32.121Z,11.89
2023-04-26T19:42:05.323Z,11.65
2023-04-26T19:44:39.863Z,11.54
2023-04-26T19:47:13.969Z,11.59
2023-04-26T19:49:48.126Z,11.62
2023-04-26T19:52:21.442Z,11.53
2023-04-26T19:54:56.030Z,11.93
2023-04-26T19:57:30.053Z,11.90
2023-04-26T20:00:07.561Z,11.84
2023-04-26T20:02:40.700Z,11.76
2023-04-26T20:05:13.760Z,11.59
2023-04-26T20:07:47.271Z,11.84
2023-04-26T20:10:22.152Z,11.51
2023-04-26T20:12:55.291Z,11.58
2023-04-26T20:15:30.410Z,11.47
2023-04-26T20:18:04.786Z,11.38
2023-04-26T20:20:37.978Z,11.54
2023-04-26T20:23:10.990Z,11.50
2023-04-26T20:25:45.264Z,11.50
2023-04-26T20:28:18.537Z,11.29
2023-04-26T20:30:52.076Z,11.46
2023-04-26T20:33:25.425Z,11.40
2023-04-26T20:35:58.506Z,11.42
2023-04-26T20:38:31.431Z,11.32
2023-04-26T20:41:05.849Z,11.28
2023-04-26T20:43:39.563Z,11.19
2023-04-26T20:46:12.852Z,10.97
2023-04-26T20:48:47.162Z,11.13
2023-04-26T20:51:20.122Z,11.47
2023-04-26T20:53:53.317Z,11.14
2023-04-26T20:56:27.606Z,11.16
2023-04-26T20:59:00.769Z,11.36
2023-04-26T21:01:36.640Z,11.10
2023-04-26T21:04:10.132Z,11.07
2023-04-26T21:06:43.211Z,11.18
2023-04-26T21:09:16.265Z,11.29
2023-04-26T21:11:50.513Z,11.24
2023-04-26T21:14:23.672Z,11.11
2023-04-26T21:16:56.672Z,10.94
2023-04-26T21:19:29.579Z,10.95
2023-04-26T21:22:02.460Z,10.80
2023-04-26T21:24:36.035Z,10.73
2023-04-26T21:27:10.779Z,10.89
2023-04-26T21:29:44.055Z,11.07
2023-04-26T21:32:16.924Z,10.87
2023-04-26T21:34:49.673Z,10.93
2023-04-26T21:37:22.996Z,10.84
2023-04-26T21:39:55.825Z,10.95
2023-04-26T21:42:30.029Z,11.03
2023-04-26T21:45:03.341Z,10.85
2023-04-26T21:47:36.278Z,10.80
2023-04-26T21:50:09.457Z,10.84
2023-04-26T21:52:42.284Z,10.79
2023-04-26T21:55:15.162Z,11.04
2023-04-26T21:57:49.339Z,10.91
2023-04-26T22:00:23.530Z,10.90
2023-04-26T22:02:57.130Z,10.83
2023-04-26T22:05:31.109Z,10.86
2023-04-26T22:08:03.992Z,10.76
2023-04-26T22:10:37.113Z,10.86
2023-04-26T22:13:11.646Z,10.99
2023-04-26T22:15:44.786Z,11.04
2023-04-26T22:18:17.679Z,11.07
2023-04-26T22:20:50.442Z,10.92
2023-04-26T22:23:23.421Z,10.71
2023-04-26T22:25:58.244Z,10.75
2023-04-26T22:28:32.647Z,10.65
2023-04-26T22:31:05.940Z,10.75
2023-04-26T22:33:38.952Z,10.72
2023-04-26T22:36:12.068Z,10.87
2023-04-26T22:38:44.868Z,10.75
2023-04-26T22:41:17.677Z,10.90
2023-04-26T22:43:53.228Z,10.71
2023-04-26T22:46:26.804Z,10.86
2023-04-26T22:48:59.832Z,10.76
2023-04-26T22:51:33.476Z,10.60
2023-04-26T22:54:06.730Z,10.74
2023-04-26T22:56:39.534Z,10.77
2023-04-26T22:59:13.988Z,10.74
2023-04-26T23:01:47.606Z,10.88
2023-04-26T23:04:20.697Z,10.44
2023-04-26T23:06:53.750Z,10.84
2023-04-26T23:09:26.599Z,10.67
2023-04-26T23:11:59.902Z,10.43
2023-04-26T23:14:35.341Z,10.53
2023-04-26T23:17:09.175Z,10.48
2023-04-26T23:19:42.405Z,10.46
2023-04-26T23:22:15.747Z,10.47
2023-04-26T23:24:48.668Z,10.58
2023-04-26T23:27:21.916Z,10.33
2023-04-26T23:29:56.793Z,10.43
2023-04-26T23:32:29.813Z,10.52
2023-04-26T23:35:02.649Z,10.44
2023-04-26T23:37:35.857Z,10.33
2023-04-26T23:40:10.310Z,10.47
2023-04-26T23:42:43.057Z,10.48
2023-04-26T23:45:19.306Z,10.17
2023-04-26T23:47:52.321Z,10.30
2023-04-26T23:50:25.196Z,10.60
2023-04-26T23:52:57.972Z,10.54
2023-04-26T23:55:30.855Z,10.23
2023-04-26T23:58:03.729Z,10.49
